sensor_id;sensor_type;location;lat;lon;timestamp;pressure;altitude;pressure_sealevel;temperature;humidity
73624;BME280;61921;53.226;-1.296;2022-12-31T00:01:33;98353.37;;;8.96;85.72
73624;BME280;61921;53.226;-1.296;2022-12-31T00:03:59;98352.81;;;8.96;85.95
73624;BME280;61921;53.226;-1.296;2022-12-31T00:06:26;98350.25;;;8.96;86.16
73624;BME280;61921;53.226;-1.296;2022-12-31T00:08:50;98349.35;;;8.93;86.42
73624;BME280;61921;53.226;-1.296;2022-12-31T00:11:15;98343.65;;;8.97;86.45
73624;BME280;61921;53.226;-1.296;2022-12-31T00:13:41;98343.57;;;9.00;86.50
73624;BME280;61921;53.226;-1.296;2022-12-31T00:16:08;98342.67;;;9.04;86.46
73624;BME280;61921;53.226;-1.296;2022-12-31T00:18:31;98341.13;;;9.02;86.64
73624;BME280;61921;53.226;-1.296;2022-12-31T00:20:56;98345.17;;;9.02;86.92
73624;BME280;61921;53.226;-1.296;2022-12-31T00:23:21;98353.45;;;9.05;86.83
73624;BME280;61921;53.226;-1.296;2022-12-31T00:25:47;98350.68;;;9.12;86.69
73624;BME280;61921;53.226;-1.296;2022-12-31T00:28:12;98355.51;;;9.09;86.88
73624;BME280;61921;53.226;-1.296;2022-12-31T00:30:37;98355.95;;;9.01;87.56
73624;BME280;61921;53.226;-1.296;2022-12-31T00:33:03;98359.86;;;9.07;87.57
73624;BME280;61921;53.226;-1.296;2022-12-31T00:35:28;98358.45;;;9.03;87.99
73624;BME280;61921;53.226;-1.296;2022-12-31T00:37:53;98356.19;;;9.03;88.15
73624;BME280;61921;53.226;-1.296;2022-12-31T00:40:18;98367.99;;;9.03;88.75
73624;BME280;61921;53.226;-1.296;2022-12-31T00:42:44;98369.99;;;9.07;89.12
73624;BME280;61921;53.226;-1.296;2022-12-31T00:45:10;98363.29;;;9.02;89.79
73624;BME280;61921;53.226;-1.296;2022-12-31T00:47:34;98371.54;;;9.11;89.85
73624;BME280;61921;53.226;-1.296;2022-12-31T00:50:00;98369.24;;;9.12;90.12
73624;BME280;61921;53.226;-1.296;2022-12-31T00:52:25;98358.08;;;9.13;90.36
73624;BME280;61921;53.226;-1.296;2022-12-31T00:54:50;98355.04;;;9.13;90.60
73624;BME280;61921;53.226;-1.296;2022-12-31T00:57:16;98341.52;;;9.11;90.80
73624;BME280;61921;53.226;-1.296;2022-12-31T00:59:41;98338.43;;;9.08;90.97
73624;BME280;61921;53.226;-1.296;2022-12-31T01:02:06;98339.96;;;9.06;91.42
73624;BME280;61921;53.226;-1.296;2022-12-31T01:04:32;98344.38;;;9.08;91.49
73624;BME280;61921;53.226;-1.296;2022-12-31T01:06:57;98341.32;;;9.13;91.39
73624;BME280;61921;53.226;-1.296;2022-12-31T01:09:23;98331.74;;;9.11;91.79
73624;BME280;61921;53.226;-1.296;2022-12-31T01:11:49;98329.82;;;9.12;91.83
73624;BME280;61921;53.226;-1.296;2022-12-31T01:14:16;98334.08;;;9.21;91.75
73624;BME280;61921;53.226;-1.296;2022-12-31T01:16:41;98328.44;;;9.26;91.45
73624;BME280;61921;53.226;-1.296;2022-12-31T01:19:07;98327.16;;;9.27;91.37
73624;BME280;61921;53.226;-1.296;2022-12-31T01:21:31;98323.13;;;9.21;91.89
73624;BME280;61921;53.226;-1.296;2022-12-31T01:23:56;98324.44;;;9.26;91.89
73624;BME280;61921;53.226;-1.296;2022-12-31T01:26:21;98329.23;;;9.23;92.10
73624;BME280;61921;53.226;-1.296;2022-12-31T01:28:46;98324.17;;;9.30;91.86
73624;BME280;61921;53.226;-1.296;2022-12-31T01:31:12;98319.72;;;9.26;92.09
73624;BME280;61921;53.226;-1.296;2022-12-31T01:33:37;98307.52;;;9.31;92.06
73624;BME280;61921;53.226;-1.296;2022-12-31T01:36:04;98307.11;;;9.35;91.91
73624;BME280;61921;53.226;-1.296;2022-12-31T01:38:28;98315.19;;;9.33;92.01
73624;BME280;61921;53.226;-1.296;2022-12-31T01:40:53;98316.57;;;9.32;92.01
73624;BME280;61921;53.226;-1.296;2022-12-31T01:43:19;98325.45;;;9.35;92.01
73624;BME280;61921;53.226;-1.296;2022-12-31T01:45:45;98334.74;;;9.38;91.79
73624;BME280;61921;53.226;-1.296;2022-12-31T01:48:11;98339.43;;;9.39;91.82
73624;BME280;61921;53.226;-1.296;2022-12-31T01:50:35;98331.77;;;9.38;91.68
73624;BME280;61921;53.226;-1.296;2022-12-31T01:53:02;98328.87;;;9.42;91.66
73624;BME280;61921;53.226;-1.296;2022-12-31T01:55:29;98329.66;;;9.43;91.51
73624;BME280;61921;53.226;-1.296;2022-12-31T01:57:53;98321.98;;;9.47;91.34
73624;BME280;61921;53.226;-1.296;2022-12-31T02:00:17;98319.21;;;9.49;91.29
73624;BME280;61921;53.226;-1.296;2022-12-31T02:02:41;98312.85;;;9.51;91.07
73624;BME280;61921;53.226;-1.296;2022-12-31T02:05:13;98326.87;;;9.44;91.35
73624;BME280;61921;53.226;-1.296;2022-12-31T02:07:32;98327.75;;;9.63;90.51
73624;BME280;61921;53.226;-1.296;2022-12-31T02:09:58;98329.00;;;9.57;90.56
73624;BME280;61921;53.226;-1.296;2022-12-31T02:12:23;98337.24;;;9.59;90.52
73624;BME280;61921;53.226;-1.296;2022-12-31T02:14:50;98338.45;;;9.57;90.69
73624;BME280;61921;53.226;-1.296;2022-12-31T02:17:20;98338.15;;;9.53;90.67
73624;BME280;61921;53.226;-1.296;2022-12-31T02:22:10;98329.33;;;9.58;90.26
73624;BME280;61921;53.226;-1.296;2022-12-31T02:24:44;98326.80;;;9.55;90.49
73624;BME280;61921;53.226;-1.296;2022-12-31T02:26:58;98329.48;;;9.58;90.40
73624;BME280;61921;53.226;-1.296;2022-12-31T02:31:48;98335.96;;;9.70;89.71
73624;BME280;61921;53.226;-1.296;2022-12-31T02:34:15;98335.84;;;9.69;89.71
73624;BME280;61921;53.226;-1.296;2022-12-31T02:36:38;98328.52;;;9.79;89.15
73624;BME280;61921;53.226;-1.296;2022-12-31T02:39:02;98331.92;;;9.83;89.11
73624;BME280;61921;53.226;-1.296;2022-12-31T02:41:26;98337.68;;;9.74;89.41
73624;BME280;61921;53.226;-1.296;2022-12-31T02:43:52;98336.69;;;9.80;89.27
73624;BME280;61921;53.226;-1.296;2022-12-31T02:46:22;98334.48;;;9.79;89.25
73624;BME280;61921;53.226;-1.296;2022-12-31T02:48:48;98337.13;;;9.77;89.48
73624;BME280;61921;53.226;-1.296;2022-12-31T02:51:17;98342.26;;;9.77;89.49
73624;BME280;61921;53.226;-1.296;2022-12-31T02:53:46;98356.00;;;9.83;89.51
73624;BME280;61921;53.226;-1.296;2022-12-31T02:56:04;98358.20;;;9.77;89.80
73624;BME280;61921;53.226;-1.296;2022-12-31T02:58:28;98361.55;;;9.82;89.82
73624;BME280;61921;53.226;-1.296;2022-12-31T03:00:54;98358.66;;;9.89;89.42
73624;BME280;61921;53.226;-1.296;2022-12-31T03:03:15;98367.23;;;9.89;89.46
73624;BME280;61921;53.226;-1.296;2022-12-31T03:05:41;98361.28;;;9.93;89.53
73624;BME280;61921;53.226;-1.296;2022-12-31T03:08:05;98361.91;;;9.98;89.38
73624;BME280;61921;53.226;-1.296;2022-12-31T03:10:30;98364.55;;;10.07;89.24
73624;BME280;61921;53.226;-1.296;2022-12-31T03:12:56;98367.14;;;10.08;89.09
73624;BME280;61921;53.226;-1.296;2022-12-31T03:15:24;98364.66;;;10.09;88.94
73624;BME280;61921;53.226;-1.296;2022-12-31T03:17:49;98368.05;;;10.11;89.05
73624;BME280;61921;53.226;-1.296;2022-12-31T03:20:12;98372.53;;;10.13;89.64
73624;BME280;61921;53.226;-1.296;2022-12-31T03:22:40;98372.80;;;10.18;89.69
73624;BME280;61921;53.226;-1.296;2022-12-31T03:25:05;98369.25;;;10.13;90.28
73624;BME280;61921;53.226;-1.296;2022-12-31T03:27:28;98360.29;;;10.10;90.68
73624;BME280;61921;53.226;-1.296;2022-12-31T03:29:53;98356.37;;;10.08;91.06
73624;BME280;61921;53.226;-1.296;2022-12-31T03:32:19;98353.94;;;10.07;90.92
73624;BME280;61921;53.226;-1.296;2022-12-31T03:34:44;98356.54;;;10.06;91.43
73624;BME280;61921;53.226;-1.296;2022-12-31T03:37:10;98365.04;;;9.98;92.30
73624;BME280;61921;53.226;-1.296;2022-12-31T03:39:35;98363.39;;;9.94;93.15
73624;BME280;61921;53.226;-1.296;2022-12-31T03:42:01;98360.85;;;9.93;93.79
73624;BME280;61921;53.226;-1.296;2022-12-31T03:44:26;98354.38;;;9.86;94.37
73624;BME280;61921;53.226;-1.296;2022-12-31T03:46:51;98341.06;;;9.91;94.36
73624;BME280;61921;53.226;-1.296;2022-12-31T03:49:17;98334.30;;;9.83;94.64
73624;BME280;61921;53.226;-1.296;2022-12-31T03:51:42;98325.01;;;9.77;95.08
73624;BME280;61921;53.226;-1.296;2022-12-31T03:54:08;98323.52;;;9.87;95.14
73624;BME280;61921;53.226;-1.296;2022-12-31T03:56:33;98326.46;;;9.80;95.58
73624;BME280;61921;53.226;-1.296;2022-12-31T03:58:58;98338.80;;;9.86;95.41
73624;BME280;61921;53.226;-1.296;2022-12-31T04:01:24;98338.35;;;9.92;95.24
73624;BME280;61921;53.226;-1.296;2022-12-31T04:03:49;98334.29;;;9.91;95.13
73624;BME280;61921;53.226;-1.296;2022-12-31T04:06:15;98320.34;;;9.94;94.66
73624;BME280;61921;53.226;-1.296;2022-12-31T04:08:40;98323.98;;;9.91;94.88
73624;BME280;61921;53.226;-1.296;2022-12-31T04:11:06;98316.03;;;9.89;94.74
73624;BME280;61921;53.226;-1.296;2022-12-31T04:13:31;98324.98;;;9.88;94.94
73624;BME280;61921;53.226;-1.296;2022-12-31T04:15:56;98326.43;;;9.94;94.33
73624;BME280;61921;53.226;-1.296;2022-12-31T04:18:22;98322.79;;;10.05;93.83
73624;BME280;61921;53.226;-1.296;2022-12-31T04:20:47;98314.82;;;10.01;94.00
73624;BME280;61921;53.226;-1.296;2022-12-31T04:23:13;98323.98;;;10.09;93.77
73624;BME280;61921;53.226;-1.296;2022-12-31T04:25:38;98322.08;;;10.10;93.70
73624;BME280;61921;53.226;-1.296;2022-12-31T04:28:04;98307.74;;;10.12;93.80
73624;BME280;61921;53.226;-1.296;2022-12-31T04:30:29;98316.58;;;10.05;94.40
73624;BME280;61921;53.226;-1.296;2022-12-31T04:32:54;98328.03;;;10.02;94.96
73624;BME280;61921;53.226;-1.296;2022-12-31T04:35:20;98330.69;;;10.02;95.30
73624;BME280;61921;53.226;-1.296;2022-12-31T04:37:45;98322.74;;;10.08;95.23
73624;BME280;61921;53.226;-1.296;2022-12-31T04:40:11;98332.14;;;10.03;95.84
73624;BME280;61921;53.226;-1.296;2022-12-31T04:42:36;98327.19;;;10.07;95.97
73624;BME280;61921;53.226;-1.296;2022-12-31T04:45:01;98331.88;;;10.14;95.85
73624;BME280;61921;53.226;-1.296;2022-12-31T04:47:27;98326.93;;;10.21;95.43
73624;BME280;61921;53.226;-1.296;2022-12-31T04:49:52;98329.95;;;10.23;95.55
73624;BME280;61921;53.226;-1.296;2022-12-31T04:52:17;98333.18;;;10.31;95.20
73624;BME280;61921;53.226;-1.296;2022-12-31T04:54:43;98321.97;;;10.33;94.96
73624;BME280;61921;53.226;-1.296;2022-12-31T04:57:08;98324.25;;;10.32;94.96
73624;BME280;61921;53.226;-1.296;2022-12-31T04:59:34;98316.00;;;10.37;94.71
73624;BME280;61921;53.226;-1.296;2022-12-31T05:01:59;98313.93;;;10.37;94.72
73624;BME280;61921;53.226;-1.296;2022-12-31T05:04:25;98307.70;;;10.27;95.04
73624;BME280;61921;53.226;-1.296;2022-12-31T05:06:50;98308.49;;;10.27;95.13
73624;BME280;61921;53.226;-1.296;2022-12-31T05:09:15;98310.80;;;10.31;95.20
73624;BME280;61921;53.226;-1.296;2022-12-31T05:11:41;98314.39;;;10.30;95.25
73624;BME280;61921;53.226;-1.296;2022-12-31T05:14:06;98305.10;;;10.35;95.25
73624;BME280;61921;53.226;-1.296;2022-12-31T05:16:31;98304.41;;;10.51;94.64
73624;BME280;61921;53.226;-1.296;2022-12-31T05:18:57;98301.74;;;10.52;94.07
73624;BME280;61921;53.226;-1.296;2022-12-31T05:21:22;98305.01;;;10.48;93.82
73624;BME280;61921;53.226;-1.296;2022-12-31T05:23:48;98307.37;;;10.45;94.18
73624;BME280;61921;53.226;-1.296;2022-12-31T05:26:13;98310.72;;;10.47;94.06
73624;BME280;61921;53.226;-1.296;2022-12-31T05:28:38;98307.06;;;10.42;94.29
73624;BME280;61921;53.226;-1.296;2022-12-31T05:31:04;98303.23;;;10.42;94.31
73624;BME280;61921;53.226;-1.296;2022-12-31T05:33:29;98305.95;;;10.46;94.45
73624;BME280;61921;53.226;-1.296;2022-12-31T05:35:54;98307.61;;;10.46;94.26
73624;BME280;61921;53.226;-1.296;2022-12-31T05:38:20;98309.17;;;10.54;94.17
73624;BME280;61921;53.226;-1.296;2022-12-31T05:40:45;98312.13;;;10.45;94.53
73624;BME280;61921;53.226;-1.296;2022-12-31T05:43:11;98317.00;;;10.34;95.24
73624;BME280;61921;53.226;-1.296;2022-12-31T05:45:36;98321.16;;;10.39;95.25
73624;BME280;61921;53.226;-1.296;2022-12-31T05:48:02;98328.59;;;10.44;95.38
73624;BME280;61921;53.226;-1.296;2022-12-31T05:50:27;98324.21;;;10.43;95.25
73624;BME280;61921;53.226;-1.296;2022-12-31T05:52:52;98313.99;;;10.45;95.37
73624;BME280;61921;53.226;-1.296;2022-12-31T05:55:18;98294.06;;;10.44;95.42
73624;BME280;61921;53.226;-1.296;2022-12-31T05:57:43;98289.89;;;10.53;95.13
73624;BME280;61921;53.226;-1.296;2022-12-31T06:00:10;98308.51;;;10.36;96.27
73624;BME280;61921;53.226;-1.296;2022-12-31T06:02:34;98321.45;;;10.33;97.00
73624;BME280;61921;53.226;-1.296;2022-12-31T06:04:59;98317.99;;;10.34;97.16
73624;BME280;61921;53.226;-1.296;2022-12-31T06:07:25;98333.41;;;10.28;97.84
73624;BME280;61921;53.226;-1.296;2022-12-31T06:09:50;98347.27;;;10.29;98.05
73624;BME280;61921;53.226;-1.296;2022-12-31T06:12:16;98328.47;;;10.39;97.70
73624;BME280;61921;53.226;-1.296;2022-12-31T06:14:42;98320.33;;;10.33;98.03
73624;BME280;61921;53.226;-1.296;2022-12-31T06:17:06;98313.89;;;10.31;98.22
73624;BME280;61921;53.226;-1.296;2022-12-31T06:19:32;98311.30;;;10.31;98.81
73624;BME280;61921;53.226;-1.296;2022-12-31T06:21:57;98314.57;;;10.38;98.24
73624;BME280;61921;53.226;-1.296;2022-12-31T06:24:23;98306.31;;;10.43;98.19
73624;BME280;61921;53.226;-1.296;2022-12-31T06:26:48;98282.70;;;10.49;98.10
73624;BME280;61921;53.226;-1.296;2022-12-31T06:29:14;98284.60;;;10.58;97.57
73624;BME280;61921;53.226;-1.296;2022-12-31T06:31:39;98291.73;;;10.52;97.82
73624;BME280;61921;53.226;-1.296;2022-12-31T06:34:05;98285.44;;;10.54;98.10
73624;BME280;61921;53.226;-1.296;2022-12-31T06:36:30;98280.94;;;10.62;97.60
73624;BME280;61921;53.226;-1.296;2022-12-31T06:38:55;98282.76;;;10.71;97.40
73624;BME280;61921;53.226;-1.296;2022-12-31T06:41:21;98285.84;;;10.68;97.37
73624;BME280;61921;53.226;-1.296;2022-12-31T06:43:46;98284.43;;;10.83;97.03
73624;BME280;61921;53.226;-1.296;2022-12-31T06:46:14;98283.99;;;10.78;96.99
73624;BME280;61921;53.226;-1.296;2022-12-31T06:48:37;98297.46;;;10.66;97.57
73624;BME280;61921;53.226;-1.296;2022-12-31T06:51:03;98316.63;;;10.67;97.95
73624;BME280;61921;53.226;-1.296;2022-12-31T06:53:27;98304.67;;;10.80;97.87
73624;BME280;61921;53.226;-1.296;2022-12-31T06:55:53;98289.11;;;10.91;97.08
73624;BME280;61921;53.226;-1.296;2022-12-31T06:58:19;98299.17;;;11.04;96.22
73624;BME280;61921;53.226;-1.296;2022-12-31T07:00:49;98304.64;;;11.13;95.54
73624;BME280;61921;53.226;-1.296;2022-12-31T07:03:18;98305.76;;;11.09;95.84
73624;BME280;61921;53.226;-1.296;2022-12-31T07:05:41;98297.69;;;10.91;96.35
73624;BME280;61921;53.226;-1.296;2022-12-31T07:08:10;98301.15;;;11.02;96.28
73624;BME280;61921;53.226;-1.296;2022-12-31T07:10:33;98318.97;;;10.87;96.70
73624;BME280;61921;53.226;-1.296;2022-12-31T07:13:01;98315.44;;;10.98;96.54
73624;BME280;61921;53.226;-1.296;2022-12-31T07:15:28;98301.93;;;10.93;96.89
73624;BME280;61921;53.226;-1.296;2022-12-31T07:17:49;98303.72;;;11.16;96.49
73624;BME280;61921;53.226;-1.296;2022-12-31T07:20:10;98308.03;;;11.07;96.52
73624;BME280;61921;53.226;-1.296;2022-12-31T07:22:33;98317.14;;;10.82;96.89
73624;BME280;61921;53.226;-1.296;2022-12-31T07:24:58;98320.31;;;10.58;97.86
73624;BME280;61921;53.226;-1.296;2022-12-31T07:27:37;98319.40;;;10.33;99.28
73624;BME280;61921;53.226;-1.296;2022-12-31T07:30:00;98328.45;;;10.14;100.00
73624;BME280;61921;53.226;-1.296;2022-12-31T07:32:22;98332.47;;;10.16;100.00
73624;BME280;61921;53.226;-1.296;2022-12-31T07:34:45;98343.08;;;9.91;100.00
73624;BME280;61921;53.226;-1.296;2022-12-31T07:37:08;98346.50;;;9.78;100.00
73624;BME280;61921;53.226;-1.296;2022-12-31T07:39:38;98338.68;;;9.62;100.00
73624;BME280;61921;53.226;-1.296;2022-12-31T07:42:02;98345.18;;;9.54;100.00
73624;BME280;61921;53.226;-1.296;2022-12-31T07:44:32;98357.67;;;9.58;100.00
73624;BME280;61921;53.226;-1.296;2022-12-31T07:46:52;98372.35;;;9.56;100.00
73624;BME280;61921;53.226;-1.296;2022-12-31T07:49:12;98383.84;;;9.84;100.00
73624;BME280;61921;53.226;-1.296;2022-12-31T07:51:37;98375.64;;;9.96;100.00
73624;BME280;61921;53.226;-1.296;2022-12-31T07:54:02;98366.82;;;9.96;100.00
73624;BME280;61921;53.226;-1.296;2022-12-31T07:56:28;98376.23;;;10.12;100.00
73624;BME280;61921;53.226;-1.296;2022-12-31T07:59:01;98357.64;;;10.42;100.00
73624;BME280;61921;53.226;-1.296;2022-12-31T08:01:28;98338.80;;;10.58;100.00
73624;BME280;61921;53.226;-1.296;2022-12-31T08:03:51;98364.35;;;10.69;100.00
73624;BME280;61921;53.226;-1.296;2022-12-31T08:06:12;98390.09;;;10.16;100.00
73624;BME280;61921;53.226;-1.296;2022-12-31T08:08:39;98401.60;;;10.46;100.00
73624;BME280;61921;53.226;-1.296;2022-12-31T08:11:07;98405.73;;;10.62;100.00
73624;BME280;61921;53.226;-1.296;2022-12-31T08:13:25;98409.35;;;10.65;100.00
73624;BME280;61921;53.226;-1.296;2022-12-31T08:15:51;98413.84;;;10.70;100.00
73624;BME280;61921;53.226;-1.296;2022-12-31T08:18:17;98412.34;;;10.86;99.65
73624;BME280;61921;53.226;-1.296;2022-12-31T08:20:48;98415.37;;;10.85;98.30
73624;BME280;61921;53.226;-1.296;2022-12-31T08:23:20;98410.39;;;10.77;97.26
73624;BME280;61921;53.226;-1.296;2022-12-31T08:25:37;98408.14;;;10.33;98.48
73624;BME280;61921;53.226;-1.296;2022-12-31T08:28:03;98414.45;;;10.07;99.64
73624;BME280;61921;53.226;-1.296;2022-12-31T08:30:27;98427.80;;;9.79;100.00
73624;BME280;61921;53.226;-1.296;2022-12-31T08:32:51;98439.77;;;10.13;100.00
73624;BME280;61921;53.226;-1.296;2022-12-31T08:35:25;98449.15;;;10.36;99.37
73624;BME280;61921;53.226;-1.296;2022-12-31T08:37:42;98445.81;;;10.52;98.95
73624;BME280;61921;53.226;-1.296;2022-12-31T08:40:14;98447.31;;;10.54;98.58
73624;BME280;61921;53.226;-1.296;2022-12-31T08:42:36;98462.10;;;10.68;98.19
73624;BME280;61921;53.226;-1.296;2022-12-31T08:45:02;98467.10;;;10.81;97.84
73624;BME280;61921;53.226;-1.296;2022-12-31T08:47:28;98468.11;;;10.81;96.92
73624;BME280;61921;53.226;-1.296;2022-12-31T08:49:47;98469.51;;;10.52;97.60
73624;BME280;61921;53.226;-1.296;2022-12-31T08:52:22;98478.13;;;10.66;98.00
73624;BME280;61921;53.226;-1.296;2022-12-31T08:54:38;98483.96;;;10.79;97.65
73624;BME280;61921;53.226;-1.296;2022-12-31T08:57:09;98490.41;;;10.88;97.43
73624;BME280;61921;53.226;-1.296;2022-12-31T08:59:36;98485.15;;;10.92;96.97
73624;BME280;61921;53.226;-1.296;2022-12-31T09:04:24;98501.87;;;11.02;96.76
73624;BME280;61921;53.226;-1.296;2022-12-31T09:06:49;98501.36;;;11.08;96.39
73624;BME280;61921;53.226;-1.296;2022-12-31T09:09:15;98485.15;;;10.97;96.11
73624;BME280;61921;53.226;-1.296;2022-12-31T09:11:47;98491.35;;;11.09;96.18
73624;BME280;61921;53.226;-1.296;2022-12-31T09:14:11;98473.90;;;10.79;96.79
73624;BME280;61921;53.226;-1.296;2022-12-31T09:16:31;98482.28;;;10.89;96.65
73624;BME280;61921;53.226;-1.296;2022-12-31T09:18:51;98489.08;;;11.06;96.48
73624;BME280;61921;53.226;-1.296;2022-12-31T09:21:17;98492.95;;;11.14;96.44
73624;BME280;61921;53.226;-1.296;2022-12-31T09:23:42;98499.23;;;11.21;96.34
73624;BME280;61921;53.226;-1.296;2022-12-31T09:26:17;98500.80;;;11.21;95.92
73624;BME280;61921;53.226;-1.296;2022-12-31T09:28:42;98518.36;;;11.29;95.69
73624;BME280;61921;53.226;-1.296;2022-12-31T09:31:01;98520.02;;;11.33;95.52
73624;BME280;61921;53.226;-1.296;2022-12-31T09:33:33;98519.39;;;11.29;95.36
73624;BME280;61921;53.226;-1.296;2022-12-31T09:35:52;98540.01;;;11.25;95.33
73624;BME280;61921;53.226;-1.296;2022-12-31T09:38:18;98547.23;;;11.23;95.61
73624;BME280;61921;53.226;-1.296;2022-12-31T09:40:51;98538.01;;;11.28;95.98
73624;BME280;61921;53.226;-1.296;2022-12-31T09:45:40;98546.29;;;11.39;95.91
73624;BME280;61921;53.226;-1.296;2022-12-31T09:50:33;98541.23;;;11.37;95.24
73624;BME280;61921;53.226;-1.296;2022-12-31T09:53:10;98527.47;;;11.39;95.65
73624;BME280;61921;53.226;-1.296;2022-12-31T09:57:39;98538.04;;;11.52;95.46
73624;BME280;61921;53.226;-1.296;2022-12-31T10:00:10;98535.81;;;11.48;95.35
73624;BME280;61921;53.226;-1.296;2022-12-31T10:02:41;98538.84;;;11.50;95.04
73624;BME280;61921;53.226;-1.296;2022-12-31T10:05:02;98544.55;;;11.48;95.40
73624;BME280;61921;53.226;-1.296;2022-12-31T10:07:28;98546.19;;;11.50;95.24
73624;BME280;61921;53.226;-1.296;2022-12-31T10:09:54;98551.98;;;11.47;95.46
73624;BME280;61921;53.226;-1.296;2022-12-31T10:12:26;98552.01;;;11.49;95.65
73624;BME280;61921;53.226;-1.296;2022-12-31T10:14:46;98557.10;;;11.50;95.51
73624;BME280;61921;53.226;-1.296;2022-12-31T10:17:10;98552.01;;;11.54;95.69
73624;BME280;61921;53.226;-1.296;2022-12-31T10:19:35;98549.65;;;11.60;95.48
73624;BME280;61921;53.226;-1.296;2022-12-31T10:22:01;98553.96;;;11.61;95.55
73624;BME280;61921;53.226;-1.296;2022-12-31T10:26:55;98558.68;;;11.75;95.42
73624;BME280;61921;53.226;-1.296;2022-12-31T10:29:13;98565.39;;;11.76;95.19
73624;BME280;61921;53.226;-1.296;2022-12-31T10:31:38;98575.34;;;11.81;94.46
73624;BME280;61921;53.226;-1.296;2022-12-31T10:36:29;98559.14;;;11.73;94.27
73624;BME280;61921;53.226;-1.296;2022-12-31T10:38:57;98565.75;;;11.68;95.23
73624;BME280;61921;53.226;-1.296;2022-12-31T10:41:35;98571.29;;;11.81;95.08
73624;BME280;61921;53.226;-1.296;2022-12-31T10:43:51;98575.30;;;11.76;95.16
73624;BME280;61921;53.226;-1.296;2022-12-31T10:51:14;98568.84;;;11.73;95.36
73624;BME280;61921;53.226;-1.296;2022-12-31T10:53:33;98569.54;;;11.79;95.11
73624;BME280;61921;53.226;-1.296;2022-12-31T10:55:59;98578.71;;;11.74;95.36
73624;BME280;61921;53.226;-1.296;2022-12-31T11:00:40;98577.84;;;11.78;95.37
73624;BME280;61921;53.226;-1.296;2022-12-31T11:05:42;98570.28;;;11.93;95.40
73624;BME280;61921;53.226;-1.296;2022-12-31T11:08:06;98579.95;;;11.99;94.89
73624;BME280;61921;53.226;-1.296;2022-12-31T11:17:42;98562.52;;;11.64;96.95
73624;BME280;61921;53.226;-1.296;2022-12-31T11:20:13;98560.58;;;11.66;96.89
73624;BME280;61921;53.226;-1.296;2022-12-31T11:22:36;98556.93;;;11.59;97.15
73624;BME280;61921;53.226;-1.296;2022-12-31T11:25:10;98561.68;;;11.64;96.97
73624;BME280;61921;53.226;-1.296;2022-12-31T11:27:22;98560.53;;;11.71;97.30
73624;BME280;61921;53.226;-1.296;2022-12-31T11:29:52;98557.29;;;11.83;96.91
73624;BME280;61921;53.226;-1.296;2022-12-31T11:32:15;98549.58;;;11.73;96.49
73624;BME280;61921;53.226;-1.296;2022-12-31T11:37:09;98543.54;;;11.66;96.92
73624;BME280;61921;53.226;-1.296;2022-12-31T11:39:33;98543.84;;;11.63;97.13
73624;BME280;61921;53.226;-1.296;2022-12-31T11:41:51;98543.79;;;11.49;97.86
73624;BME280;61921;53.226;-1.296;2022-12-31T11:44:19;98547.75;;;11.62;97.75
73624;BME280;61921;53.226;-1.296;2022-12-31T11:46:51;98554.95;;;11.65;97.67
73624;BME280;61921;53.226;-1.296;2022-12-31T11:49:13;98554.39;;;11.75;97.65
73624;BME280;61921;53.226;-1.296;2022-12-31T11:51:38;98551.73;;;11.80;96.99
73624;BME280;61921;53.226;-1.296;2022-12-31T11:56:22;98549.47;;;12.02;96.24
73624;BME280;61921;53.226;-1.296;2022-12-31T11:58:47;98552.21;;;12.10;96.11
73624;BME280;61921;53.226;-1.296;2022-12-31T12:01:13;98557.93;;;12.15;95.46
73624;BME280;61921;53.226;-1.296;2022-12-31T12:03:36;98556.73;;;12.18;95.12
73624;BME280;61921;53.226;-1.296;2022-12-31T12:06:00;98554.36;;;12.14;95.30
73624;BME280;61921;53.226;-1.296;2022-12-31T12:08:30;98551.17;;;12.10;95.41
73624;BME280;61921;53.226;-1.296;2022-12-31T12:10:53;98544.71;;;12.13;95.33
73624;BME280;61921;53.226;-1.296;2022-12-31T12:13:22;98538.80;;;12.14;95.32
73624;BME280;61921;53.226;-1.296;2022-12-31T12:15:46;98533.94;;;11.96;95.80
73624;BME280;61921;53.226;-1.296;2022-12-31T12:18:17;98531.82;;;11.80;96.73
73624;BME280;61921;53.226;-1.296;2022-12-31T12:20:36;98530.92;;;11.76;97.18
73624;BME280;61921;53.226;-1.296;2022-12-31T12:23:00;98530.87;;;11.73;97.29
73624;BME280;61921;53.226;-1.296;2022-12-31T12:25:25;98530.71;;;11.84;97.19
73624;BME280;61921;53.226;-1.296;2022-12-31T12:27:49;98532.08;;;11.90;96.97
73624;BME280;61921;53.226;-1.296;2022-12-31T12:30:19;98538.12;;;11.90;96.86
73624;BME280;61921;53.226;-1.296;2022-12-31T12:32:52;98533.15;;;11.88;97.11
73624;BME280;61921;53.226;-1.296;2022-12-31T12:35:14;98526.63;;;11.89;97.29
73624;BME280;61921;53.226;-1.296;2022-12-31T12:37:33;98528.50;;;11.89;96.98
73624;BME280;61921;53.226;-1.296;2022-12-31T12:39:57;98532.89;;;11.81;97.33
73624;BME280;61921;53.226;-1.296;2022-12-31T12:42:21;98533.99;;;11.91;97.48
73624;BME280;61921;53.226;-1.296;2022-12-31T12:44:46;98531.42;;;11.92;97.29
73624;BME280;61921;53.226;-1.296;2022-12-31T12:47:14;98529.75;;;12.01;97.09
73624;BME280;61921;53.226;-1.296;2022-12-31T12:49:39;98527.59;;;11.98;97.00
73624;BME280;61921;53.226;-1.296;2022-12-31T12:52:14;98534.18;;;12.02;97.05
73624;BME280;61921;53.226;-1.296;2022-12-31T12:54:38;98530.60;;;12.10;96.85
73624;BME280;61921;53.226;-1.296;2022-12-31T12:56:58;98527.12;;;12.21;96.61
73624;BME280;61921;53.226;-1.296;2022-12-31T13:01:46;98518.09;;;12.37;95.46
73624;BME280;61921;53.226;-1.296;2022-12-31T13:04:25;98516.40;;;12.32;94.80
73624;BME280;61921;53.226;-1.296;2022-12-31T13:06:43;98510.70;;;12.34;94.90
73624;BME280;61921;53.226;-1.296;2022-12-31T13:09:11;98511.88;;;12.45;95.05
73624;BME280;61921;53.226;-1.296;2022-12-31T13:11:33;98504.24;;;12.43;94.38
73624;BME280;61921;53.226;-1.296;2022-12-31T13:13:58;98503.15;;;12.47;94.60
73624;BME280;61921;53.226;-1.296;2022-12-31T13:16:20;98506.74;;;12.50;94.02
73624;BME280;61921;53.226;-1.296;2022-12-31T13:18:51;98505.01;;;12.49;93.94
73624;BME280;61921;53.226;-1.296;2022-12-31T13:21:18;98500.28;;;12.52;93.90
73624;BME280;61921;53.226;-1.296;2022-12-31T13:23:38;98481.42;;;12.65;93.76
73624;BME280;61921;53.226;-1.296;2022-12-31T13:26:03;98482.65;;;12.57;93.11